sensor_id;sensor_type;location;lat;lon;timestamp;pressure;altitude;pressure_sealevel;temperature;humidity
73501;BME280;61721;42.206;25.320;2022-09-29T00:00:14;98645.19;;;20.47;43.22
73501;BME280;61721;42.206;25.320;2022-09-29T00:02:44;98645.09;;;20.54;43.24
73501;BME280;61721;42.206;25.320;2022-09-29T00:05:13;98639.22;;;20.57;43.23
73501;BME280;61721;42.206;25.320;2022-09-29T00:07:42;98645.00;;;20.60;43.20
73501;BME280;61721;42.206;25.320;2022-09-29T00:10:10;98641.94;;;20.57;43.21
73501;BME280;61721;42.206;25.320;2022-09-29T00:12:39;98639.66;;;20.54;43.34
73501;BME280;61721;42.206;25.320;2022-09-29T00:15:09;98642.38;;;20.54;43.30
73501;BME280;61721;42.206;25.320;2022-09-29T00:17:37;98634.31;;;20.47;42.75
73501;BME280;61721;42.206;25.320;2022-09-29T00:20:08;98629.56;;;20.42;43.10
73501;BME280;61721;42.206;25.320;2022-09-29T00:22:37;98638.56;;;20.43;43.24
73501;BME280;61721;42.206;25.320;2022-09-29T00:25:06;98643.63;;;20.39;43.42
73501;BME280;61721;42.206;25.320;2022-09-29T00:27:35;98647.41;;;20.38;43.60
73501;BME280;61721;42.206;25.320;2022-09-29T00:30:05;98645.75;;;20.37;43.67
73501;BME280;61721;42.206;25.320;2022-09-29T00:32:33;98641.84;;;20.33;43.60
73501;BME280;61721;42.206;25.320;2022-09-29T00:35:03;98647.09;;;20.28;44.19
73501;BME280;61721;42.206;25.320;2022-09-29T00:37:35;98649.25;;;20.26;44.04
73501;BME280;61721;42.206;25.320;2022-09-29T00:40:04;98645.69;;;20.26;44.23
73501;BME280;61721;42.206;25.320;2022-09-29T00:42:34;98638.81;;;20.23;44.27
73501;BME280;61721;42.206;25.320;2022-09-29T00:45:20;98630.66;;;20.23;44.44
73501;BME280;61721;42.206;25.320;2022-09-29T00:47:58;98628.41;;;20.20;44.49
73501;BME280;61721;42.206;25.320;2022-09-29T00:50:37;98630.53;;;20.18;44.68
73501;BME280;61721;42.206;25.320;2022-09-29T00:53:10;98621.78;;;20.16;44.74
73501;BME280;61721;42.206;25.320;2022-09-29T00:55:42;98615.53;;;20.16;44.87
73501;BME280;61721;42.206;25.320;2022-09-29T00:58:18;98613.84;;;20.15;45.10
73501;BME280;61721;42.206;25.320;2022-09-29T01:00:50;98615.53;;;20.16;45.07
73501;BME280;61721;42.206;25.320;2022-09-29T01:03:21;98605.84;;;20.20;45.10
73501;BME280;61721;42.206;25.320;2022-09-29T01:05:55;98610.22;;;20.21;45.24
73501;BME280;61721;42.206;25.320;2022-09-29T01:08:30;98618.38;;;20.21;45.22
73501;BME280;61721;42.206;25.320;2022-09-29T01:11:03;98614.81;;;20.20;45.22
73501;BME280;61721;42.206;25.320;2022-09-29T01:13:33;98613.78;;;20.21;45.36
73501;BME280;61721;42.206;25.320;2022-09-29T01:16:02;98619.78;;;20.23;45.31
73501;BME280;61721;42.206;25.320;2022-09-29T01:18:31;98614.97;;;20.25;45.35
73501;BME280;61721;42.206;25.320;2022-09-29T01:21:12;98609.75;;;20.24;45.55
73501;BME280;61721;42.206;25.320;2022-09-29T01:27:15;98607.59;;;20.14;45.50
73501;BME280;61721;42.206;25.320;2022-09-29T01:30:00;98609.13;;;20.10;45.70
73501;BME280;61721;42.206;25.320;2022-09-29T01:32:55;98600.22;;;20.03;45.81
73501;BME280;61721;42.206;25.320;2022-09-29T01:35:36;98600.69;;;20.00;46.00
73501;BME280;61721;42.206;25.320;2022-09-29T01:38:15;98601.59;;;19.94;46.29
73501;BME280;61721;42.206;25.320;2022-09-29T01:40:56;98594.97;;;19.90;46.24
73501;BME280;61721;42.206;25.320;2022-09-29T01:43:32;98593.31;;;19.89;46.52
73501;BME280;61721;42.206;25.320;2022-09-29T01:46:20;98590.59;;;19.89;46.41
73501;BME280;61721;42.206;25.320;2022-09-29T01:48:54;98596.25;;;19.87;46.64
73501;BME280;61721;42.206;25.320;2022-09-29T01:51:28;98595.28;;;19.82;46.75
73501;BME280;61721;42.206;25.320;2022-09-29T01:54:03;98607.22;;;19.81;46.80
73501;BME280;61721;42.206;25.320;2022-09-29T01:56:37;98606.38;;;19.80;46.90
73501;BME280;61721;42.206;25.320;2022-09-29T01:59:13;98610.38;;;19.78;46.98
73501;BME280;61721;42.206;25.320;2022-09-29T02:01:44;98612.88;;;19.79;47.02
73501;BME280;61721;42.206;25.320;2022-09-29T02:04:19;98617.47;;;19.79;46.95
73501;BME280;61721;42.206;25.320;2022-09-29T02:06:54;98615.94;;;19.83;47.01
73501;BME280;61721;42.206;25.320;2022-09-29T02:09:29;98610.44;;;19.89;46.97
73501;BME280;61721;42.206;25.320;2022-09-29T02:12:02;98612.94;;;19.91;46.82
73501;BME280;61721;42.206;25.320;2022-09-29T02:14:37;98614.97;;;19.95;46.81
73501;BME280;61721;42.206;25.320;2022-09-29T02:17:10;98619.44;;;20.01;45.63
73501;BME280;61721;42.206;25.320;2022-09-29T02:19:53;98623.13;;;20.07;46.12
73501;BME280;61721;42.206;25.320;2022-09-29T02:22:22;98625.16;;;20.12;46.16
73501;BME280;61721;42.206;25.320;2022-09-29T02:24:52;98630.38;;;20.13;46.45
73501;BME280;61721;42.206;25.320;2022-09-29T02:27:23;98627.56;;;20.20;46.37
73501;BME280;61721;42.206;25.320;2022-09-29T02:29:52;98632.78;;;20.21;46.52
73501;BME280;61721;42.206;25.320;2022-09-29T02:32:22;98626.06;;;20.24;46.54
73501;BME280;61721;42.206;25.320;2022-09-29T02:35:00;98626.06;;;20.24;46.63
73501;BME280;61721;42.206;25.320;2022-09-29T02:37:58;98631.28;;;20.25;46.54
73501;BME280;61721;42.206;25.320;2022-09-29T02:40:40;98631.28;;;20.25;46.71
73501;BME280;61721;42.206;25.320;2022-09-29T02:46:13;98629.59;;;20.24;46.71
73501;BME280;61721;42.206;25.320;2022-09-29T02:49:07;98644.72;;;20.20;46.91
73501;BME280;61721;42.206;25.320;2022-09-29T02:51:46;98646.97;;;20.23;46.85
73501;BME280;61721;42.206;25.320;2022-09-29T02:54:30;98649.25;;;20.26;46.76
73501;BME280;61721;42.206;25.320;2022-09-29T02:57:12;98660.09;;;20.26;46.76
73501;BME280;61721;42.206;25.320;2022-09-29T02:59:50;98658.44;;;20.25;47.05
73501;BME280;61721;42.206;25.320;2022-09-29T03:02:27;98673.38;;;20.34;46.79
73501;BME280;61721;42.206;25.320;2022-09-29T03:04:56;98672.91;;;20.37;46.57
73501;BME280;61721;42.206;25.320;2022-09-29T03:07:29;98667.59;;;20.31;46.89
73501;BME280;61721;42.206;25.320;2022-09-29T03:09:58;98669.31;;;20.25;46.96
73501;BME280;61721;42.206;25.320;2022-09-29T03:12:27;98671.88;;;20.20;47.21
73501;BME280;61721;42.206;25.320;2022-09-29T03:14:58;98674.34;;;20.22;47.28
73501;BME280;61721;42.206;25.320;2022-09-29T03:17:27;98668.47;;;20.25;47.09
73501;BME280;61721;42.206;25.320;2022-09-29T03:19:56;98667.66;;;20.24;47.21
73501;BME280;61721;42.206;25.320;2022-09-29T03:22:25;98670.56;;;20.23;47.08
73501;BME280;61721;42.206;25.320;2022-09-29T03:24:55;98664.78;;;20.19;47.44
73501;BME280;61721;42.206;25.320;2022-09-29T03:27:24;98676.69;;;20.18;47.15
73501;BME280;61721;42.206;25.320;2022-09-29T03:29:53;98672.31;;;20.17;47.34
73501;BME280;61721;42.206;25.320;2022-09-29T03:32:22;98669.16;;;20.20;47.21
73501;BME280;61721;42.206;25.320;2022-09-29T03:34:51;98677.75;;;20.17;47.47
73501;BME280;61721;42.206;25.320;2022-09-29T03:37:19;98674.91;;;20.12;47.47
73501;BME280;61721;42.206;25.320;2022-09-29T03:39:48;98681.28;;;20.06;47.44
73501;BME280;61721;42.206;25.320;2022-09-29T03:42:18;98683.97;;;20.06;47.54
73501;BME280;61721;42.206;25.320;2022-09-29T03:44:51;98684.88;;;20.00;47.72
73501;BME280;61721;42.206;25.320;2022-09-29T03:47:20;98678.84;;;19.98;47.80
73501;BME280;61721;42.206;25.320;2022-09-29T03:49:49;98681.41;;;19.93;47.79
73501;BME280;61721;42.206;25.320;2022-09-29T03:52:18;98683.91;;;19.94;47.98
73501;BME280;61721;42.206;25.320;2022-09-29T03:54:52;98690.59;;;19.92;48.03
73501;BME280;61721;42.206;25.320;2022-09-29T03:57:22;98679.16;;;19.90;48.17
73501;BME280;61721;42.206;25.320;2022-09-29T03:59:51;98681.72;;;19.85;48.30
73501;BME280;61721;42.206;25.320;2022-09-29T04:02:20;98681.94;;;19.83;48.22
73501;BME280;61721;42.206;25.320;2022-09-29T04:04:49;98671.75;;;19.79;48.32
73501;BME280;61721;42.206;25.320;2022-09-29T04:07:18;98669.50;;;19.76;48.50
73501;BME280;61721;42.206;25.320;2022-09-29T04:09:47;98665.13;;;19.75;48.54
73501;BME280;61721;42.206;25.320;2022-09-29T04:12:15;98671.81;;;19.72;48.71
73501;BME280;61721;42.206;25.320;2022-09-29T04:14:46;98662.84;;;19.72;48.78
73501;BME280;61721;42.206;25.320;2022-09-29T04:17:14;98667.00;;;19.74;48.62
73501;BME280;61721;42.206;25.320;2022-09-29T04:19:43;98667.38;;;19.78;48.49
73501;BME280;61721;42.206;25.320;2022-09-29T04:22:13;98658.19;;;19.79;48.76
73501;BME280;61721;42.206;25.320;2022-09-29T04:24:44;98669.81;;;19.86;48.44
73501;BME280;61721;42.206;25.320;2022-09-29T04:27:14;98671.16;;;19.95;48.45
73501;BME280;61721;42.206;25.320;2022-09-29T04:29:43;98672.50;;;20.04;48.11
73501;BME280;61721;42.206;25.320;2022-09-29T04:32:13;98671.13;;;20.13;48.13
73501;BME280;61721;42.206;25.320;2022-09-29T04:34:42;98673.78;;;20.20;48.08
73501;BME280;61721;42.206;25.320;2022-09-29T04:37:11;98674.75;;;20.25;48.06
73501;BME280;61721;42.206;25.320;2022-09-29T04:39:40;98692.25;;;20.29;47.84
73501;BME280;61721;42.206;25.320;2022-09-29T04:42:08;98689.22;;;20.37;47.77
73501;BME280;61721;42.206;25.320;2022-09-29T04:44:37;98702.50;;;20.45;47.75
73501;BME280;61721;42.206;25.320;2022-09-29T04:47:06;98697.63;;;20.66;47.45
73501;BME280;61721;42.206;25.320;2022-09-29T04:49:36;98711.97;;;20.84;47.12
73501;BME280;61721;42.206;25.320;2022-09-29T04:52:05;98711.88;;;20.91;47.04
73501;BME280;61721;42.206;25.320;2022-09-29T04:54:34;98714.47;;;20.86;47.14
73501;BME280;61721;42.206;25.320;2022-09-29T04:57:03;98715.56;;;20.97;46.96
73501;BME280;61721;42.206;25.320;2022-09-29T04:59:32;98719.50;;;21.12;46.89
73501;BME280;61721;42.206;25.320;2022-09-29T05:02:00;98731.38;;;21.29;46.40
73501;BME280;61721;42.206;25.320;2022-09-29T05:04:29;98740.25;;;21.25;46.40
73501;BME280;61721;42.206;25.320;2022-09-29T05:06:59;98731.13;;;21.19;46.35
73501;BME280;61721;42.206;25.320;2022-09-29T05:09:28;98732.50;;;21.10;46.15
73501;BME280;61721;42.206;25.320;2022-09-29T05:11:57;98730.41;;;21.12;46.13
73501;BME280;61721;42.206;25.320;2022-09-29T05:14:25;98728.72;;;21.11;46.14
73501;BME280;61721;42.206;25.320;2022-09-29T05:16:54;98720.13;;;21.14;46.00
73501;BME280;61721;42.206;25.320;2022-09-29T05:19:24;98721.44;;;21.23;45.77
73501;BME280;61721;42.206;25.320;2022-09-29T05:21:52;98724.53;;;21.39;45.67
73501;BME280;61721;42.206;25.320;2022-09-29T05:24:23;98733.19;;;21.47;45.21
73501;BME280;61721;42.206;25.320;2022-09-29T05:26:51;98732.00;;;21.43;45.29
73501;BME280;61721;42.206;25.320;2022-09-29T05:29:20;98749.28;;;21.49;44.98
73501;BME280;61721;42.206;25.320;2022-09-29T05:31:49;98742.56;;;21.63;44.75
73501;BME280;61721;42.206;25.320;2022-09-29T05:34:18;98746.09;;;21.75;44.57
73501;BME280;61721;42.206;25.320;2022-09-29T05:36:47;98752.03;;;21.95;44.10
73501;BME280;61721;42.206;25.320;2022-09-29T05:39:16;98744.44;;;22.09;44.11
73501;BME280;61721;42.206;25.320;2022-09-29T05:41:48;98743.31;;;22.33;43.32
73501;BME280;61721;42.206;25.320;2022-09-29T05:44:18;98746.56;;;22.58;43.21
73501;BME280;61721;42.206;25.320;2022-09-29T05:46:47;98752.16;;;22.52;43.21
73501;BME280;61721;42.206;25.320;2022-09-29T05:49:15;98760.50;;;22.34;43.38
73501;BME280;61721;42.206;25.320;2022-09-29T05:51:45;98760.31;;;22.00;43.69
73501;BME280;61721;42.206;25.320;2022-09-29T05:54:14;98749.91;;;21.97;43.82
73501;BME280;61721;42.206;25.320;2022-09-29T05:56:42;98741.25;;;22.52;43.00
73501;BME280;61721;42.206;25.320;2022-09-29T05:59:12;98729.19;;;23.05;42.16
73501;BME280;61721;42.206;25.320;2022-09-29T06:01:41;98724.44;;;23.45;41.46
73501;BME280;61721;42.206;25.320;2022-09-29T06:04:10;98726.34;;;23.83;40.64
73501;BME280;61721;42.206;25.320;2022-09-29T06:06:39;98732.50;;;24.12;40.25
73501;BME280;61721;42.206;25.320;2022-09-29T06:09:08;98757.28;;;24.65;39.43
73501;BME280;61721;42.206;25.320;2022-09-29T06:11:36;98746.88;;;25.16;38.66
73501;BME280;61721;42.206;25.320;2022-09-29T06:14:05;98745.81;;;25.49;37.76
73501;BME280;61721;42.206;25.320;2022-09-29T06:16:35;98748.66;;;26.01;37.09
73501;BME280;61721;42.206;25.320;2022-09-29T06:19:07;98753.31;;;26.48;36.42
73501;BME280;61721;42.206;25.320;2022-09-29T06:21:36;98748.81;;;26.94;35.65
73501;BME280;61721;42.206;25.320;2022-09-29T06:24:06;98754.66;;;27.33;35.16
73501;BME280;61721;42.206;25.320;2022-09-29T06:26:34;98756.31;;;27.69;34.24
73501;BME280;61721;42.206;25.320;2022-09-29T06:29:03;98764.53;;;27.99;34.08
73501;BME280;61721;42.206;25.320;2022-09-29T06:31:32;98755.03;;;28.51;33.20
73501;BME280;61721;42.206;25.320;2022-09-29T06:34:04;98745.97;;;29.10;32.35
73501;BME280;61721;42.206;25.320;2022-09-29T06:36:34;98736.63;;;29.73;31.26
73501;BME280;61721;42.206;25.320;2022-09-29T06:39:21;98730.19;;;30.36;30.91
73501;BME280;61721;42.206;25.320;2022-09-29T06:41:51;98741.59;;;30.95;30.22
73501;BME280;61721;42.206;25.320;2022-09-29T06:44:23;98749.41;;;31.12;29.75
73501;BME280;61721;42.206;25.320;2022-09-29T06:46:53;98749.19;;;31.09;29.92
73501;BME280;61721;42.206;25.320;2022-09-29T06:49:24;98752.84;;;31.55;29.26
73501;BME280;61721;42.206;25.320;2022-09-29T06:51:53;98759.31;;;32.43;28.15
73501;BME280;61721;42.206;25.320;2022-09-29T06:54:22;98761.06;;;32.80;27.65
73501;BME280;61721;42.206;25.320;2022-09-29T06:56:52;98759.75;;;33.13;27.37
73501;BME280;61721;42.206;25.320;2022-09-29T06:59:21;98765.00;;;33.50;27.10
73501;BME280;61721;42.206;25.320;2022-09-29T07:01:50;98771.41;;;34.35;25.93
73501;BME280;61721;42.206;25.320;2022-09-29T07:04:20;98754.81;;;34.52;25.96
73501;BME280;61721;42.206;25.320;2022-09-29T07:06:50;98758.53;;;34.96;25.49
73501;BME280;61721;42.206;25.320;2022-09-29T07:09:19;98751.06;;;35.31;25.12
73501;BME280;61721;42.206;25.320;2022-09-29T07:11:50;98758.28;;;35.49;25.38
73501;BME280;61721;42.206;25.320;2022-09-29T07:14:20;98757.94;;;35.50;25.46
73501;BME280;61721;42.206;25.320;2022-09-29T07:16:50;98744.28;;;35.92;24.99
73501;BME280;61721;42.206;25.320;2022-09-29T07:19:21;98743.94;;;36.02;24.46
73501;BME280;61721;42.206;25.320;2022-09-29T07:21:51;98743.22;;;36.22;24.39
73501;BME280;61721;42.206;25.320;2022-09-29T07:24:20;98738.56;;;36.43;24.35
73501;BME280;61721;42.206;25.320;2022-09-29T07:26:51;98745.47;;;36.75;23.90
73501;BME280;61721;42.206;25.320;2022-09-29T07:29:20;98745.56;;;37.50;23.61
73501;BME280;61721;42.206;25.320;2022-09-29T07:31:49;98743.53;;;37.92;22.46
73501;BME280;61721;42.206;25.320;2022-09-29T07:34:19;98752.09;;;38.07;22.83
73501;BME280;61721;42.206;25.320;2022-09-29T07:36:48;98750.00;;;37.51;22.91
73501;BME280;61721;42.206;25.320;2022-09-29T07:39:20;98747.00;;;38.09;22.74
73501;BME280;61721;42.206;25.320;2022-09-29T07:41:49;98762.06;;;38.78;22.06
73501;BME280;61721;42.206;25.320;2022-09-29T07:44:18;98759.31;;;38.08;22.10
73501;BME280;61721;42.206;25.320;2022-09-29T07:46:47;98756.97;;;38.10;22.40
73501;BME280;61721;42.206;25.320;2022-09-29T07:49:18;98756.94;;;38.56;21.72
73501;BME280;61721;42.206;25.320;2022-09-29T07:51:46;98748.63;;;39.20;21.64
73501;BME280;61721;42.206;25.320;2022-09-29T07:54:17;98755.50;;;39.90;20.62
73501;BME280;61721;42.206;25.320;2022-09-29T07:56:50;98746.25;;;40.33;20.68
73501;BME280;61721;42.206;25.320;2022-09-29T07:59:19;98757.97;;;40.86;20.14
73501;BME280;61721;42.206;25.320;2022-09-29T08:01:48;98760.91;;;41.63;19.81
73501;BME280;61721;42.206;25.320;2022-09-29T08:04:17;98761.13;;;42.35;19.00
73501;BME280;61721;42.206;25.320;2022-09-29T08:06:46;98759.34;;;42.04;19.51
73501;BME280;61721;42.206;25.320;2022-09-29T08:09:15;98769.13;;;42.33;18.83
73501;BME280;61721;42.206;25.320;2022-09-29T08:11:45;98767.00;;;42.49;18.65
73501;BME280;61721;42.206;25.320;2022-09-29T08:14:15;98762.00;;;42.88;18.83
73501;BME280;61721;42.206;25.320;2022-09-29T08:16:44;98773.03;;;43.23;18.50
73501;BME280;61721;42.206;25.320;2022-09-29T08:19:13;98780.38;;;42.55;19.49
73501;BME280;61721;42.206;25.320;2022-09-29T08:21:42;98772.09;;;42.66;19.40
73501;BME280;61721;42.206;25.320;2022-09-29T08:24:12;98767.06;;;43.01;18.46
73501;BME280;61721;42.206;25.320;2022-09-29T08:26:41;98774.19;;;42.46;18.97
73501;BME280;61721;42.206;25.320;2022-09-29T08:29:13;98773.94;;;42.32;18.66
73501;BME280;61721;42.206;25.320;2022-09-29T08:31:43;98761.47;;;43.61;17.84
73501;BME280;61721;42.206;25.320;2022-09-29T08:34:14;98753.31;;;44.70;17.31
73501;BME280;61721;42.206;25.320;2022-09-29T08:36:43;98757.94;;;45.69;15.90
73501;BME280;61721;42.206;25.320;2022-09-29T08:39:13;98755.66;;;46.06;16.31
73501;BME280;61721;42.206;25.320;2022-09-29T08:41:49;98750.44;;;46.26;15.53
73501;BME280;61721;42.206;25.320;2022-09-29T08:44:25;98748.03;;;46.99;15.45
73501;BME280;61721;42.206;25.320;2022-09-29T08:47:10;98757.03;;;47.84;14.89
73501;BME280;61721;42.206;25.320;2022-09-29T08:49:44;98760.78;;;47.67;14.52
73501;BME280;61721;42.206;25.320;2022-09-29T08:52:16;98748.31;;;47.26;14.78
73501;BME280;61721;42.206;25.320;2022-09-29T08:54:53;98756.88;;;47.04;15.05
73501;BME280;61721;42.206;25.320;2022-09-29T08:57:24;98751.13;;;47.40;14.51
73501;BME280;61721;42.206;25.320;2022-09-29T08:59:55;98741.31;;;47.62;14.64
73501;BME280;61721;42.206;25.320;2022-09-29T09:02:58;98738.03;;;47.74;14.31
73501;BME280;61721;42.206;25.320;2022-09-29T09:05:45;98749.09;;;47.40;14.78
73501;BME280;61721;42.206;25.320;2022-09-29T09:11:28;98755.50;;;48.38;14.16
73501;BME280;61721;42.206;25.320;2022-09-29T09:14:07;98767.63;;;48.46;13.59
73501;BME280;61721;42.206;25.320;2022-09-29T09:16:46;98756.13;;;48.60;13.39
73501;BME280;61721;42.206;25.320;2022-09-29T09:19:54;98766.44;;;48.40;13.88
73501;BME280;61721;42.206;25.320;2022-09-29T09:22:32;98774.66;;;47.37;14.36
73501;BME280;61721;42.206;25.320;2022-09-29T09:25:16;98764.94;;;47.38;14.73
73501;BME280;61721;42.206;25.320;2022-09-29T09:27:50;98756.88;;;48.64;13.75
73501;BME280;61721;42.206;25.320;2022-09-29T09:30:27;98758.41;;;49.54;12.89
73501;BME280;61721;42.206;25.320;2022-09-29T09:33:03;98770.16;;;48.30;13.49
73501;BME280;61721;42.206;25.320;2022-09-29T09:35:40;98763.06;;;49.00;13.09
73501;BME280;61721;42.206;25.320;2022-09-29T09:38:14;98758.66;;;48.51;13.71
73501;BME280;61721;42.206;25.320;2022-09-29T09:40:48;98752.19;;;49.29;13.43
73501;BME280;61721;42.206;25.320;2022-09-29T09:43:23;98751.50;;;49.86;12.51
73501;BME280;61721;42.206;25.320;2022-09-29T09:45:56;98746.28;;;48.75;13.74
73501;BME280;61721;42.206;25.320;2022-09-29T09:48:31;98744.75;;;46.90;15.48
73501;BME280;61721;42.206;25.320;2022-09-29T09:51:23;98736.97;;;44.97;16.32
73501;BME280;61721;42.206;25.320;2022-09-29T09:53:57;98737.22;;;43.53;18.04
73501;BME280;61721;42.206;25.320;2022-09-29T09:56:41;98738.91;;;43.61;17.70
73501;BME280;61721;42.206;25.320;2022-09-29T09:59:21;98735.59;;;43.52;17.89
73501;BME280;61721;42.206;25.320;2022-09-29T10:01:52;98732.34;;;43.24;18.31
73501;BME280;61721;42.206;25.320;2022-09-29T10:04:22;98735.59;;;42.47;18.59
73501;BME280;61721;42.206;25.320;2022-09-29T10:06:55;98721.13;;;41.61;19.36
73501;BME280;61721;42.206;25.320;2022-09-29T10:09:24;98722.25;;;41.02;20.54
73501;BME280;61721;42.206;25.320;2022-09-29T10:11:53;98720.00;;;40.41;20.90
73501;BME280;61721;42.206;25.320;2022-09-29T10:14:25;98716.78;;;39.80;21.59
73501;BME280;61721;42.206;25.320;2022-09-29T10:16:57;98728.19;;;38.55;22.38
73501;BME280;61721;42.206;25.320;2022-09-29T10:19:56;98719.63;;;37.28;24.00
73501;BME280;61721;42.206;25.320;2022-09-29T10:22:29;98714.53;;;37.31;24.04
73501;BME280;61721;42.206;25.320;2022-09-29T10:25:14;98712.16;;;37.20;24.04
73501;BME280;61721;42.206;25.320;2022-09-29T10:27:46;98712.88;;;36.59;24.46
73501;BME280;61721;42.206;25.320;2022-09-29T10:30:34;98714.03;;;36.58;24.44
73501;BME280;61721;42.206;25.320;2022-09-29T10:33:13;98699.50;;;36.81;24.17
73501;BME280;61721;42.206;25.320;2022-09-29T10:35:44;98697.97;;;37.05;24.28
73501;BME280;61721;42.206;25.320;2022-09-29T10:38:18;98704.69;;;37.12;24.13
73501;BME280;61721;42.206;25.320;2022-09-29T10:40:54;98704.59;;;37.42;24.00
73501;BME280;61721;42.206;25.320;2022-09-29T10:43:30;98701.31;;;37.60;24.05
73501;BME280;61721;42.206;25.320;2022-09-29T10:46:00;98701.06;;;37.33;23.99
73501;BME280;61721;42.206;25.320;2022-09-29T10:48:28;98701.63;;;37.26;23.87
73501;BME280;61721;42.206;25.320;2022-09-29T10:50:59;98699.69;;;36.76;24.29
73501;BME280;61721;42.206;25.320;2022-09-29T10:53:33;98687.31;;;36.57;24.61
73501;BME280;61721;42.206;25.320;2022-09-29T10:56:08;98682.38;;;36.83;24.27
73501;BME280;61721;42.206;25.320;2022-09-29T10:58:52;98696.78;;;37.14;24.30
73501;BME280;61721;42.206;25.320;2022-09-29T11:01:22;98688.06;;;36.95;24.31
73501;BME280;61721;42.206;25.320;2022-09-29T11:03:55;98694.84;;;36.65;24.36
73501;BME280;61721;42.206;25.320;2022-09-29T11:06:29;98692.69;;;36.91;24.56
73501;BME280;61721;42.206;25.320;2022-09-29T11:09:01;98690.91;;;37.07;24.26
73501;BME280;61721;42.206;25.320;2022-09-29T11:11:33;98692.97;;;37.19;24.01
73501;BME280;61721;42.206;25.320;2022-09-29T11:14:03;98695.91;;;37.22;24.01
73501;BME280;61721;42.206;25.320;2022-09-29T11:16:33;98687.38;;;37.19;24.07
73501;BME280;61721;42.206;25.320;2022-09-29T11:19:04;98688.13;;;37.07;23.97
73501;BME280;61721;42.206;25.320;2022-09-29T11:24:55;98683.63;;;36.44;24.82
73501;BME280;61721;42.206;25.320;2022-09-29T11:27:41;98679.81;;;36.19;24.91
73501;BME280;61721;42.206;25.320;2022-09-29T11:30:17;98686.34;;;35.77;24.82
73501;BME280;61721;42.206;25.320;2022-09-29T11:32:57;98688.56;;;35.92;25.08
73501;BME280;61721;42.206;25.320;2022-09-29T11:35:38;98678.16;;;36.27;24.84
73501;BME280;61721;42.206;25.320;2022-09-29T11:38:33;98670.72;;;36.60;24.59
73501;BME280;61721;42.206;25.320;2022-09-29T11:41:18;98672.28;;;36.49;24.47
73501;BME280;61721;42.206;25.320;2022-09-29T11:43:53;98669.25;;;35.87;24.88
73501;BME280;61721;42.206;25.320;2022-09-29T11:46:36;98669.94;;;35.84;24.94
73501;BME280;61721;42.206;25.320;2022-09-29T11:49:31;98664.03;;;36.32;24.75
73501;BME280;61721;42.206;25.320;2022-09-29T11:52:17;98651.06;;;36.27;23.97
73501;BME280;61721;42.206;25.320;2022-09-29T11:55:05;98658.03;;;36.21;24.39
73501;BME280;61721;42.206;25.320;2022-09-29T11:57:56;98650.31;;;36.77;23.95
73501;BME280;61721;42.206;25.320;2022-09-29T12:00:42;98656.81;;;36.81;23.40
73501;BME280;61721;42.206;25.320;2022-09-29T12:03:38;98663.28;;;35.68;24.08
73501;BME280;61721;42.206;25.320;2022-09-29T12:06:29;98659.06;;;35.44;24.40
73501;BME280;61721;42.206;25.320;2022-09-29T12:09:10;98655.25;;;35.75;23.94
73501;BME280;61721;42.206;25.320;2022-09-29T12:11:50;98665.81;;;36.36;22.74
73501;BME280;61721;42.206;25.320;2022-09-29T12:14:28;98672.16;;;36.16;22.45
73501;BME280;61721;42.206;25.320;2022-09-29T12:17:03;98662.09;;;36.24;22.44
73501;BME280;61721;42.206;25.320;2022-09-29T12:19:38;98655.44;;;36.16;22.69
73501;BME280;61721;42.206;25.320;2022-09-29T12:22:10;98663.63;;;35.49;23.20
73501;BME280;61721;42.206;25.320;2022-09-29T12:24:44;98656.28;;;35.27;23.57
73501;BME280;61721;42.206;25.320;2022-09-29T12:27:17;98655.09;;;35.54;22.93
73501;BME280;61721;42.206;25.320;2022-09-29T12:29:54;98663.22;;;36.31;22.31
73501;BME280;61721;42.206;25.320;2022-09-29T12:32:28;98664.44;;;36.42;22.40
73501;BME280;61721;42.206;25.320;2022-09-29T12:35:03;98662.25;;;36.48;22.37
73501;BME280;61721;42.206;25.320;2022-09-29T12:37:40;98652.13;;;36.73;22.14
73501;BME280;61721;42.206;25.320;2022-09-29T12:40:19;98652.56;;;36.54;21.99
73501;BME280;61721;42.206;25.320;2022-09-29T12:43:02;98661.84;;;36.37;22.49
73501;BME280;61721;42.206;25.320;2022-09-29T12:45:42;98661.00;;;36.16;22.53
73501;BME280;61721;42.206;25.320;2022-09-29T12:48:30;98668.63;;;36.28;22.29
73501;BME280;61721;42.206;25.320;2022-09-29T12:51:09;98666.25;;;36.38;22.20
73501;BME280;61721;42.206;25.320;2022-09-29T12:53:51;98665.00;;;36.27;22.26
73501;BME280;61721;42.206;25.320;2022-09-29T12:56:27;98665.94;;;36.40;21.89
73501;BME280;61721;42.206;25.320;2022-09-29T12:59:01;98660.78;;;36.51;22.04
73501;BME280;61721;42.206;25.320;2022-09-29T13:01:35;98652.81;;;36.70;21.59
73501;BME280;61721;42.206;25.320;2022-09-29T13:04:26;98658.81;;;36.80;21.66
73501;BME280;61721;42.206;25.320;2022-09-29T13:10:36;98654.69;;;36.99;22.17
73501;BME280;61721;42.206;25.320;2022-09-29T13:13:29;98650.44;;;36.80;21.98
73501;BME280;61721;42.206;25.320;2022-09-29T13:16:12;98656.16;;;36.55;21.93
73501;BME280;61721;42.206;25.320;2022-09-29T13:19:14;98650.78;;;36.50;21.68
73501;BME280;61721;42.206;25.320;2022-09-29T13:21:55;98662.00;;;36.41;21.77
73501;BME280;61721;42.206;25.320;2022-09-29T13:24:43;98644.84;;;36.30;21.79
73501;BME280;61721;42.206;25.320;2022-09-29T13:27:29;98649.75;;;35.95;22.19
73501;BME280;61721;42.206;25.320;2022-09-29T13:30:04;98643.56;;;35.81;21.78
73501;BME280;61721;42.206;25.320;2022-09-29T13:32:38;98653.75;;;35.77;21.72
73501;BME280;61721;42.206;25.320;2022-09-29T13:35:14;98650.00;;;35.56;22.05
73501;BME280;61721;42.206;25.320;2022-09-29T13:37:48;98647.16;;;35.90;22.01
73501;BME280;61721;42.206;25.320;2022-09-29T13:40:21;98632.44;;;36.19;21.58